createdAt,value
2023-05-08T00:00:04.988Z,127.60
2023-05-08T00:02:33.296Z,126.03
2023-05-08T00:05:01.557Z,127.60
2023-05-08T00:07:29.838Z,129.20
2023-05-08T00:09:57.882Z,127.43
2023-05-08T00:12:25.959Z,132.87
2023-05-08T00:14:55.487Z,129.37
2023-05-08T00:17:23.592Z,129.03
2023-05-08T00:19:51.744Z,127.80
2023-05-08T00:22:19.959Z,128.63
2023-05-08T00:24:48.262Z,131.20
2023-05-08T00:27:17.357Z,129.87
2023-05-08T00:29:45.454Z,131.50
2023-05-08T00:32:15.111Z,128.50
2023-05-08T00:34:43.245Z,127.00
2023-05-08T00:37:11.358Z,128.43
2023-05-08T00:39:39.447Z,131.47
2023-05-08T00:42:07.613Z,130.40
2023-05-08T00:44:35.733Z,132.30
2023-05-08T00:47:03.876Z,132.30
2023-05-08T00:49:35.642Z,128.17
2023-05-08T00:52:05.914Z,131.20
2023-05-08T00:54:34.213Z,131.97
2023-05-08T00:57:02.592Z,129.43
2023-05-08T00:59:31.106Z,129.57
2023-05-08T01:01:59.361Z,126.97
2023-05-08T01:04:28.854Z,125.63
2023-05-08T01:06:58.356Z,124.63
2023-05-08T01:09:26.510Z,127.60
2023-05-08T01:12:17.175Z,130.50
2023-05-08T01:15:06.382Z,127.63
2023-05-08T01:17:45.928Z,124.33
2023-05-08T01:20:29.584Z,123.13
2023-05-08T01:23:36.463Z,124.20
2023-05-08T01:26:36.092Z,129.43
2023-05-08T01:29:33.934Z,124.77
2023-05-08T01:32:17.004Z,128.00
2023-05-08T01:34:53.002Z,127.57
2023-05-08T01:37:28.710Z,128.17
2023-05-08T01:40:03.480Z,129.77
2023-05-08T01:42:44.496Z,129.53
2023-05-08T01:45:19.812Z,125.10
2023-05-08T01:47:55.939Z,122.70
2023-05-08T01:50:33.494Z,124.13
2023-05-08T01:53:08.630Z,124.40
2023-05-08T01:55:38.735Z,127.50
2023-05-08T01:58:11.207Z,126.17
2023-05-08T02:00:42.597Z,124.97
2023-05-08T02:03:15.286Z,124.30
2023-05-08T02:05:45.386Z,121.20
2023-05-08T02:08:16.141Z,127.50
2023-05-08T02:10:46.097Z,125.77
2023-05-08T02:13:19.231Z,128.00
2023-05-08T02:15:49.438Z,128.50
2023-05-08T02:18:21.592Z,126.77
2023-05-08T02:20:52.034Z,129.03
2023-05-08T02:23:21.775Z,125.23
2023-05-08T02:25:51.381Z,124.13
2023-05-08T02:28:20.626Z,128.07
2023-05-08T02:30:49.360Z,130.67
2023-05-08T02:33:20.726Z,126.90
2023-05-08T02:35:50.749Z,126.27
2023-05-08T02:38:21.668Z,125.37
2023-05-08T02:40:54.685Z,126.63
2023-05-08T02:43:23.978Z,126.20
2023-05-08T02:46:00.614Z,127.03
2023-05-08T02:48:36.725Z,123.37
2023-05-08T02:51:14.736Z,123.70
2023-05-08T02:53:48.949Z,121.80
2023-05-08T02:56:33.815Z,125.67
2023-05-08T02:59:11.364Z,123.97
2023-05-08T03:01:46.802Z,119.50
2023-05-08T03:04:25.595Z,119.70
2023-05-08T03:06:56.920Z,118.37
2023-05-08T03:09:29.209Z,118.97
2023-05-08T03:12:10.383Z,121.97
2023-05-08T03:14:44.047Z,124.23
2023-05-08T03:17:16.361Z,121.10
2023-05-08T03:19:50.774Z,121.27
2023-05-08T03:22:21.440Z,122.10
2023-05-08T03:24:50.448Z,123.80
2023-05-08T03:27:20.469Z,121.57
2023-05-08T03:29:50.679Z,121.57
2023-05-08T03:32:19.468Z,119.33
2023-05-08T03:34:50.873Z,124.90
2023-05-08T03:37:19.399Z,124.63
2023-05-08T03:39:47.672Z,125.97
2023-05-08T03:42:21.349Z,126.33
2023-05-08T03:44:51.255Z,122.17
2023-05-08T03:47:20.342Z,125.77
2023-05-08T03:49:51.330Z,128.30
2023-05-08T03:52:19.613Z,126.83
2023-05-08T03:54:47.953Z,132.77
2023-05-08T03:57:16.276Z,136.77
2023-05-08T03:59:53.207Z,134.43
2023-05-08T04:02:30.891Z,132.37
2023-05-08T04:05:06.632Z,130.40
2023-05-08T04:07:39.550Z,134.47
2023-05-08T04:10:11.158Z,133.20
2023-05-08T04:12:46.450Z,125.00
2023-05-08T04:15:21.528Z,122.77
2023-05-08T04:17:54.564Z,125.80
2023-05-08T04:20:27.798Z,127.80
2023-05-08T04:22:56.788Z,124.07
2023-05-08T04:25:25.158Z,128.10
2023-05-08T04:27:56.035Z,128.80
2023-05-08T04:30:24.366Z,128.17
2023-05-08T04:32:53.261Z,128.10
2023-05-08T04:35:22.971Z,127.43
2023-05-08T04:37:51.304Z,124.97
2023-05-08T04:40:19.346Z,121.80
2023-05-08T04:42:48.139Z,121.70
2023-05-08T04:45:16.605Z,125.27
2023-05-08T04:47:44.837Z,129.17
2023-05-08T04:50:13.032Z,130.90
2023-05-08T04:52:42.833Z,127.20
2023-05-08T04:55:11.706Z,126.50
2023-05-08T04:57:40.152Z,133.37
2023-05-08T05:00:09.408Z,134.27
2023-05-08T05:02:37.686Z,128.97
2023-05-08T05:05:06.484Z,131.07
2023-05-08T05:07:34.688Z,128.27
2023-05-08T05:10:04.644Z,131.50
2023-05-08T05:12:32.948Z,134.53
2023-05-08T05:15:01.569Z,132.60
2023-05-08T05:17:31.309Z,134.60
2023-05-08T05:19:59.799Z,138.50
2023-05-08T05:22:28.839Z,136.00
2023-05-08T05:24:57.000Z,138.10
2023-05-08T05:27:26.512Z,137.57
2023-05-08T05:29:54.615Z,138.93
2023-05-08T05:32:22.867Z,142.10
2023-05-08T05:34:50.995Z,139.33
2023-05-08T05:37:19.565Z,141.80
2023-05-08T05:39:47.701Z,135.03
2023-05-08T05:42:16.112Z,135.43
2023-05-08T05:44:45.734Z,137.40
2023-05-08T05:47:14.194Z,138.20
2023-05-08T05:49:46.678Z,137.63
2023-05-08T05:52:15.326Z,136.60
2023-05-08T05:54:43.646Z,126.80
2023-05-08T05:57:13.255Z,123.30
2023-05-08T05:59:41.636Z,130.33
2023-05-08T06:02:14.541Z,120.53
2023-05-08T06:04:42.680Z,122.07
2023-05-08T06:07:10.770Z,121.27
2023-05-08T06:09:39.168Z,120.30
2023-05-08T06:12:08.536Z,123.57
2023-05-08T06:14:36.628Z,121.07
2023-05-08T06:17:05.002Z,118.47
2023-05-08T06:19:34.625Z,116.00
2023-05-08T06:22:02.733Z,119.20
2023-05-08T06:24:30.686Z,115.63
2023-05-08T06:26:59.308Z,118.50
2023-05-08T06:29:27.365Z,112.77
2023-05-08T06:31:55.647Z,105.40
2023-05-08T06:34:23.639Z,101.60
2023-05-08T06:36:53.156Z,95.37
2023-05-08T06:39:21.406Z,90.20
2023-05-08T06:41:49.626Z,90.63
2023-05-08T06:44:17.750Z,76.67
2023-05-08T06:46:45.957Z,72.37
2023-05-08T06:49:14.168Z,62.47
2023-05-08T06:51:42.390Z,56.83
2023-05-08T06:54:11.810Z,55.77
2023-05-08T06:56:39.938Z,55.30
2023-05-08T06:59:09.134Z,55.80
2023-05-08T07:01:38.412Z,52.07
2023-05-08T07:04:06.911Z,52.03
2023-05-08T07:06:35.221Z,49.37
2023-05-08T07:09:03.403Z,49.47
2023-05-08T07:11:32.886Z,49.10
2023-05-08T07:14:01.198Z,49.60
2023-05-08T07:16:29.166Z,45.40
2023-05-08T07:18:57.307Z,46.80
2023-05-08T07:21:25.809Z,40.30
2023-05-08T07:23:54.662Z,39.67
2023-05-08T07:26:22.933Z,35.43
2023-05-08T07:28:54.194Z,36.70
2023-05-08T07:31:22.674Z,36.20
2023-05-08T07:33:50.929Z,34.00
2023-05-08T07:36:19.081Z,33.63
2023-05-08T07:38:47.340Z,32.27
2023-05-08T07:41:15.551Z,31.70
2023-05-08T07:43:45.213Z,29.30
2023-05-08T07:46:19.274Z,29.83
2023-05-08T07:48:47.459Z,27.73
2023-05-08T07:51:15.864Z,29.57
2023-05-08T07:53:44.475Z,29.20
2023-05-08T07:56:13.244Z,31.70
2023-05-08T07:58:42.592Z,30.73
2023-05-08T08:01:10.651Z,31.90
2023-05-08T08:03:40.242Z,31.00
2023-05-08T08:06:08.779Z,28.17
2023-05-08T08:08:36.963Z,28.30
2023-05-08T08:11:05.690Z,28.37
2023-05-08T08:13:34.166Z,26.93
2023-05-08T08:16:04.157Z,27.57
2023-05-08T08:18:35.627Z,27.33
2023-05-08T08:21:08.092Z,25.87
2023-05-08T08:23:36.263Z,26.63
2023-05-08T08:26:04.630Z,25.73
2023-05-08T08:28:33.117Z,24.47
2023-05-08T08:31:01.351Z,25.03
2023-05-08T08:33:30.042Z,23.60
2023-05-08T08:35:58.303Z,24.07
2023-05-08T08:38:27.771Z,24.27
2023-05-08T08:40:55.992Z,24.60
2023-05-08T08:43:24.088Z,24.00
2023-05-08T08:45:52.781Z,24.03
2023-05-08T08:48:21.914Z,22.60
2023-05-08T08:50:54.460Z,22.77
2023-05-08T08:53:27.344Z,23.20
2023-05-08T08:56:01.962Z,22.83
2023-05-08T08:58:39.256Z,22.70
2023-05-08T09:01:11.849Z,22.33
2023-05-08T09:03:40.249Z,22.57
2023-05-08T09:06:08.807Z,21.43
2023-05-08T09:08:38.541Z,22.07
2023-05-08T09:11:08.080Z,23.30
2023-05-08T09:13:36.282Z,21.20
2023-05-08T09:16:04.815Z,21.77
2023-05-08T09:18:33.113Z,21.03
2023-05-08T09:21:02.546Z,21.37
2023-05-08T09:23:32.395Z,22.27
2023-05-08T09:26:02.101Z,24.10
2023-05-08T09:28:33.483Z,22.43
2023-05-08T09:31:03.423Z,21.83
2023-05-08T09:33:31.615Z,24.80
2023-05-08T09:36:00.015Z,23.27
2023-05-08T09:38:38.476Z,23.50
2023-05-08T09:41:11.102Z,26.83
2023-05-08T09:43:40.781Z,23.00
2023-05-08T09:46:29.975Z,21.83
2023-05-08T09:48:59.267Z,22.00
2023-05-08T09:51:29.757Z,20.83
2023-05-08T09:53:59.555Z,22.03
2023-05-08T09:56:32.206Z,21.73
2023-05-08T09:59:04.504Z,22.03
2023-05-08T10:01:34.431Z,20.57
2023-05-08T10:04:03.692Z,20.57
2023-05-08T10:06:32.112Z,23.93
2023-05-08T10:09:14.158Z,22.80
2023-05-08T10:11:43.894Z,21.03
2023-05-08T10:14:13.392Z,22.03
2023-05-08T10:16:45.496Z,22.27
2023-05-08T10:19:16.110Z,21.57
2023-05-08T10:21:48.039Z,21.77
2023-05-08T10:24:18.761Z,21.47
2023-05-08T10:27:06.249Z,22.43
2023-05-08T10:29:43.525Z,19.93
2023-05-08T10:32:15.365Z,21.27
2023-05-08T10:34:47.816Z,19.97
2023-05-08T10:37:17.151Z,20.23
2023-05-08T10:39:46.144Z,20.73
2023-05-08T10:42:15.219Z,22.27
2023-05-08T10:44:45.323Z,20.90
2023-05-08T10:47:22.809Z,21.63
2023-05-08T10:50:06.470Z,20.23
2023-05-08T10:52:40.348Z,21.53
2023-05-08T10:55:20.445Z,20.07
2023-05-08T10:58:10.891Z,20.37
2023-05-08T11:01:18.094Z,20.90
2023-05-08T11:03:50.541Z,23.30
2023-05-08T11:06:39.509Z,20.60
2023-05-08T11:09:07.641Z,21.60
2023-05-08T11:11:40.035Z,20.93
2023-05-08T11:14:16.901Z,20.40
2023-05-08T11:17:08.751Z,22.87
2023-05-08T11:19:38.346Z,20.40
2023-05-08T11:22:31.190Z,20.83
2023-05-08T11:25:01.432Z,20.43
2023-05-08T11:28:04.265Z,20.37
2023-05-08T11:30:41.407Z,21.43
2023-05-08T11:33:37.912Z,19.83
2023-05-08T11:36:16.622Z,18.87
2023-05-08T11:38:45.525Z,21.03
2023-05-08T11:41:23.083Z,19.80
2023-05-08T11:44:20.402Z,22.20
2023-05-08T11:46:53.638Z,20.93
2023-05-08T11:49:29.132Z,19.67
2023-05-08T11:52:00.328Z,19.73
2023-05-08T11:54:31.529Z,19.10
2023-05-08T11:56:59.883Z,19.00
2023-05-08T11:59:28.835Z,21.07
2023-05-08T12:02:07.878Z,21.67
2023-05-08T12:04:46.926Z,21.33
2023-05-08T12:07:16.129Z,20.13
2023-05-08T12:09:44.418Z,20.63
2023-05-08T12:12:12.550Z,19.70
2023-05-08T12:14:40.708Z,20.90
2023-05-08T12:17:08.709Z,20.90
2023-05-08T12:19:37.129Z,20.13
2023-05-08T12:22:06.955Z,19.20
2023-05-08T12:24:35.109Z,20.40
2023-05-08T12:27:03.286Z,20.13
2023-05-08T12:29:31.632Z,19.47
2023-05-08T12:32:00.345Z,19.50
2023-05-08T12:34:28.640Z,20.20
2023-05-08T12:37:04.303Z,19.90
2023-05-08T12:39:38.406Z,19.53
2023-05-08T12:42:06.665Z,20.07
2023-05-08T12:44:34.839Z,20.07
2023-05-08T12:47:03.045Z,21.47
2023-05-08T12:49:32.659Z,20.27
2023-05-08T12:52:05.329Z,19.00
2023-05-08T12:54:35.041Z,19.87
2023-05-08T12:57:09.985Z,21.90
2023-05-08T12:59:38.189Z,21.27
2023-05-08T13:02:12.855Z,19.70
2023-05-08T13:04:41.150Z,20.53
2023-05-08T13:07:09.411Z,20.73
2023-05-08T13:09:37.614Z,20.83
2023-05-08T13:12:07.798Z,19.83
2023-05-08T13:14:36.291Z,19.23
2023-05-08T13:17:04.490Z,19.90
2023-05-08T13:19:32.572Z,18.80
2023-05-08T13:22:00.638Z,20.23
2023-05-08T13:24:28.695Z,19.73
2023-05-08T13:26:56.781Z,19.90
2023-05-08T13:29:26.305Z,19.93
2023-05-08T13:31:54.465Z,21.53
2023-05-08T13:34:22.661Z,19.87
2023-05-08T13:36:51.210Z,21.93
2023-05-08T13:39:19.277Z,19.33
2023-05-08T13:41:47.374Z,20.20
2023-05-08T13:44:15.455Z,19.00
2023-05-08T13:46:44.869Z,20.90
2023-05-08T13:49:12.982Z,19.27
2023-05-08T13:51:41.923Z,21.23
2023-05-08T13:54:10.774Z,19.73
2023-05-08T13:56:38.842Z,20.43
2023-05-08T13:59:06.988Z,20.83
2023-05-08T14:01:36.392Z,19.77
2023-05-08T14:04:06.438Z,19.97
2023-05-08T14:06:34.647Z,21.50
2023-05-08T14:09:02.732Z,21.43
2023-05-08T14:11:30.779Z,21.13
2023-05-08T14:13:58.916Z,18.83
2023-05-08T14:16:26.917Z,19.20
2023-05-08T14:18:55.028Z,19.87
2023-05-08T14:21:24.433Z,19.23
2023-05-08T14:23:52.465Z,19.93
2023-05-08T14:26:21.232Z,19.23
2023-05-08T14:28:49.302Z,18.47
2023-05-08T14:31:17.458Z,20.17
2023-05-08T14:33:45.605Z,19.63
2023-05-08T14:36:13.690Z,20.00
2023-05-08T14:38:43.159Z,21.27
2023-05-08T14:41:11.234Z,19.27
2023-05-08T14:43:39.301Z,20.43
2023-05-08T14:46:07.580Z,19.00
2023-05-08T14:48:35.758Z,20.90
2023-05-08T14:51:05.030Z,18.93
2023-05-08T14:53:33.343Z,18.83
2023-05-08T14:56:03.860Z,19.37
2023-05-08T14:58:32.052Z,19.67
2023-05-08T15:01:00.321Z,18.83
2023-05-08T15:03:28.650Z,19.03
2023-05-08T15:05:57.002Z,18.47
2023-05-08T15:08:25.179Z,19.63
2023-05-08T15:10:54.328Z,18.57
2023-05-08T15:13:23.884Z,17.97
2023-05-08T15:15:52.087Z,18.50
2023-05-08T15:18:20.316Z,18.03
2023-05-08T15:20:48.450Z,20.27
2023-05-08T15:23:16.654Z,19.93
2023-05-08T15:25:45.733Z,20.73
2023-05-08T15:28:13.926Z,20.53
2023-05-08T15:30:46.529Z,19.00
2023-05-08T15:33:15.901Z,19.67
2023-05-08T15:35:44.067Z,18.33
2023-05-08T15:38:12.157Z,20.07
2023-05-08T15:40:40.220Z,20.90
2023-05-08T15:43:08.316Z,19.67
2023-05-08T15:45:36.396Z,19.43
2023-05-08T15:48:06.400Z,19.93
2023-05-08T15:50:34.548Z,18.97
2023-05-08T15:53:02.598Z,20.57
2023-05-08T15:55:30.708Z,19.67
2023-05-08T15:57:58.744Z,21.93
2023-05-08T16:00:30.270Z,20.97
2023-05-08T16:03:06.526Z,21.50
2023-05-08T16:05:34.656Z,19.90
2023-05-08T16:08:02.791Z,20.30
2023-05-08T16:10:30.984Z,21.90
2023-05-08T16:12:59.173Z,20.57
2023-05-08T16:15:27.283Z,21.67
2023-05-08T16:17:55.483Z,22.20
2023-05-08T16:20:25.212Z,23.57
2023-05-08T16:22:57.477Z,22.67
2023-05-08T16:25:26.055Z,20.80
2023-05-08T16:27:54.148Z,22.17
2023-05-08T16:30:22.290Z,21.70
2023-05-08T16:32:50.548Z,24.17
2023-05-08T16:35:19.490Z,25.57
2023-05-08T16:37:49.023Z,23.93
2023-05-08T16:40:17.398Z,22.87
2023-05-08T16:42:45.447Z,23.33
2023-05-08T16:45:14.092Z,23.37
2023-05-08T16:47:42.309Z,21.57
2023-05-08T16:50:11.156Z,23.73
2023-05-08T16:52:39.222Z,21.90
2023-05-08T16:55:11.122Z,22.63
2023-05-08T16:57:39.750Z,20.93
2023-05-08T17:00:09.124Z,22.80
2023-05-08T17:02:37.362Z,20.47
2023-05-08T17:05:06.119Z,21.20
2023-05-08T17:07:34.231Z,19.60
2023-05-08T17:10:03.265Z,19.77
2023-05-08T17:12:32.741Z,20.87
2023-05-08T17:15:00.962Z,19.27
2023-05-08T17:17:28.913Z,18.53
2023-05-08T17:19:56.995Z,20.27
2023-05-08T17:22:25.096Z,19.47
2023-05-08T17:24:53.145Z,19.90
2023-05-08T17:27:21.592Z,20.30
2023-05-08T17:29:51.033Z,19.93
2023-05-08T17:32:19.274Z,19.67
2023-05-08T17:34:47.462Z,19.80
2023-05-08T17:37:15.883Z,19.20
2023-05-08T17:39:44.245Z,20.00
2023-05-08T17:42:12.309Z,19.20
2023-05-08T17:44:40.408Z,19.87
2023-05-08T17:47:10.243Z,20.13
2023-05-08T17:49:38.399Z,20.43
2023-05-08T17:52:07.347Z,19.43
2023-05-08T17:54:35.478Z,20.40
2023-05-08T17:57:03.719Z,19.80
2023-05-08T17:59:31.960Z,19.70
2023-05-08T18:02:00.258Z,20.23
2023-05-08T18:04:30.021Z,20.40
2023-05-08T18:06:59.415Z,19.20
2023-05-08T18:09:27.566Z,20.00
2023-05-08T18:12:02.083Z,20.80
2023-05-08T18:14:31.651Z,19.17
2023-05-08T18:16:59.621Z,20.23
2023-05-08T18:19:29.216Z,19.97
2023-05-08T18:21:57.318Z,18.37
2023-05-08T18:24:25.472Z,19.57
2023-05-08T18:26:53.643Z,19.40
2023-05-08T18:29:22.124Z,19.20
2023-05-08T18:31:50.421Z,18.50
2023-05-08T18:34:18.534Z,18.60
2023-05-08T18:36:47.975Z,19.03
2023-05-08T18:39:16.205Z,19.33
2023-05-08T18:41:44.331Z,18.90
2023-05-08T18:44:12.440Z,19.40
2023-05-08T18:46:40.761Z,19.13
2023-05-08T18:49:08.977Z,19.83
2023-05-08T18:51:37.029Z,20.57
2023-05-08T18:54:06.633Z,19.23
2023-05-08T18:56:35.131Z,18.50
2023-05-08T18:59:03.710Z,19.47
2023-05-08T19:01:31.871Z,20.33
2023-05-08T19:04:00.523Z,19.40
2023-05-08T19:06:28.776Z,20.30
2023-05-08T19:08:56.863Z,21.13
2023-05-08T19:11:27.495Z,21.17
2023-05-08T19:13:56.399Z,21.17
2023-05-08T19:16:24.534Z,20.73
2023-05-08T19:18:52.744Z,20.53
2023-05-08T19:21:20.877Z,21.93
2023-05-08T19:23:48.961Z,23.47
2023-05-08T19:26:18.317Z,21.87
2023-05-08T19:28:47.823Z,22.77
2023-05-08T19:31:16.017Z,23.20
2023-05-08T19:33:44.213Z,23.60
2023-05-08T19:36:12.364Z,23.77
2023-05-08T19:38:40.634Z,24.90
2023-05-08T19:41:08.826Z,25.67
2023-05-08T19:43:37.453Z,24.17
2023-05-08T19:46:07.104Z,25.93
2023-05-08T19:48:35.278Z,26.77
2023-05-08T19:51:07.407Z,27.87
2023-05-08T19:53:35.792Z,28.83
2023-05-08T19:56:04.010Z,28.47
2023-05-08T19:58:32.747Z,29.87
2023-05-08T20:01:00.865Z,31.47
2023-05-08T20:03:30.636Z,29.77
2023-05-08T20:05:58.786Z,31.27
2023-05-08T20:08:26.906Z,32.70
2023-05-08T20:10:55.010Z,33.57
2023-05-08T20:13:23.202Z,34.90
2023-05-08T20:15:51.273Z,41.13
2023-05-08T20:18:19.331Z,39.60
2023-05-08T20:20:48.868Z,40.63
2023-05-08T20:23:16.954Z,40.87
2023-05-08T20:25:46.369Z,41.27
2023-05-08T20:28:14.764Z,41.13
2023-05-08T20:30:42.960Z,42.50
2023-05-08T20:33:11.264Z,43.73
2023-05-08T20:35:39.546Z,44.70
2023-05-08T20:38:09.076Z,48.70
2023-05-08T20:40:37.243Z,51.40
2023-05-08T20:43:05.287Z,50.80
2023-05-08T20:45:33.595Z,52.17
2023-05-08T20:48:01.786Z,53.47
2023-05-08T20:50:30.092Z,53.40
2023-05-08T20:52:58.330Z,55.50
2023-05-08T20:55:27.819Z,56.00
2023-05-08T20:57:55.946Z,56.73
2023-05-08T21:00:24.074Z,58.83
2023-05-08T21:02:52.264Z,57.83
2023-05-08T21:05:20.422Z,59.87
2023-05-08T21:07:48.481Z,59.33
2023-05-08T21:10:16.758Z,61.67
2023-05-08T21:12:46.327Z,60.30
2023-05-08T21:15:14.684Z,60.20
2023-05-08T21:17:42.946Z,59.77
2023-05-08T21:20:12.496Z,62.73
2023-05-08T21:22:40.850Z,62.80
2023-05-08T21:25:12.657Z,66.40
2023-05-08T21:27:42.748Z,62.60
2023-05-08T21:30:15.605Z,66.87
2023-05-08T21:32:44.273Z,67.67
2023-05-08T21:35:13.727Z,70.43
2023-05-08T21:37:42.070Z,71.00
2023-05-08T21:40:10.750Z,69.87
2023-05-08T21:42:39.874Z,70.70
2023-05-08T21:45:08.682Z,71.63
2023-05-08T21:47:38.133Z,70.73
2023-05-08T21:50:07.147Z,72.10
2023-05-08T21:52:35.374Z,74.73
2023-05-08T21:55:08.323Z,73.83
2023-05-08T21:57:36.469Z,75.50
2023-05-08T22:00:04.810Z,78.83
2023-05-08T22:02:32.987Z,76.00
2023-05-08T22:05:02.689Z,77.50
2023-05-08T22:07:30.844Z,79.03
2023-05-08T22:09:58.986Z,77.43
2023-05-08T22:12:27.229Z,79.57
2023-05-08T22:14:55.286Z,80.27
2023-05-08T22:17:23.260Z,78.97
2023-05-08T22:19:51.364Z,81.93
2023-05-08T22:22:20.930Z,80.63
2023-05-08T22:24:49.021Z,81.83
2023-05-08T22:27:17.452Z,83.53
2023-05-08T22:29:45.643Z,81.83
2023-05-08T22:32:15.683Z,82.10
2023-05-08T22:34:43.966Z,81.93
2023-05-08T22:37:12.026Z,83.57
2023-05-08T22:39:41.501Z,81.63
2023-05-08T22:42:10.186Z,83.07
2023-05-08T22:44:38.682Z,84.13
2023-05-08T22:47:07.339Z,82.67
2023-05-08T22:49:35.623Z,79.37
2023-05-08T22:52:04.420Z,79.63
2023-05-08T22:54:32.554Z,80.93
2023-05-08T22:57:02.873Z,82.90
2023-05-08T22:59:31.019Z,83.00
2023-05-08T23:01:59.148Z,83.00
2023-05-08T23:04:27.234Z,85.10
2023-05-08T23:06:55.548Z,85.67
2023-05-08T23:09:23.983Z,85.20
2023-05-08T23:11:52.112Z,86.23
2023-05-08T23:14:21.596Z,83.47
2023-05-08T23:16:49.516Z,83.20
2023-05-08T23:19:17.613Z,86.37
2023-05-08T23:21:45.778Z,87.77
2023-05-08T23:24:14.002Z,89.80
2023-05-08T23:26:42.258Z,87.87
2023-05-08T23:29:10.449Z,92.03
2023-05-08T23:31:39.970Z,86.50
2023-05-08T23:34:08.343Z,89.07
2023-05-08T23:36:36.477Z,90.13
2023-05-08T23:39:04.736Z,89.50
2023-05-08T23:41:34.156Z,91.73
2023-05-08T23:44:02.397Z,92.43
2023-05-08T23:46:31.346Z,92.43
2023-05-08T23:49:01.008Z,94.37
2023-05-08T23:51:29.174Z,92.40
2023-05-08T23:53:57.225Z,94.17
2023-05-08T23:56:25.371Z,93.70
2023-05-08T23:58:53.535Z,93.40
